首页
METAR-TAF:

METAR-TAF

机场 :

Port Hardy, 不列颠哥伦比亚, 加拿大

纬度: 50-41N, 经度: 127-22W, 海拔: 22米

当前天气观测

该预报发布于26分钟前的09:18 UTC
风速11节,风向东转东南
温度 9°C
湿度 93%
气压 1009 hPa
能見度: 19.3公里
多云层高于700英尺
阴天层高于1800英尺
小雨

METAR: CYZT 150918Z 11011KT 12SM -RA BKN007 OVC018 09/08 A2979 RMK SF5SC3 SLP091

时间: 01:44 (09:44 UTC)

预报

该预报发布于3小时和6分钟前的06:38 UTC
预报有效从15日的 07点(UTC)到 15日的 19点(UTC)
风速12节,风向东转东南,有时为22节阵风
能見度: 10公里
散云层高于2000英尺
阴天层高于4000英尺
小雨
短暂存在
从 15日的 07点(UTC)到 15日的 10点(UTC)
能見度: 8.0公里
散云层高于1000英尺
阴天层高于2000英尺
小雨, 轻雾
从 15日的 1000点(UTC)
风速10节,风向东转东南
能見度: 10公里
散云层高于800英尺
阴天层高于2500英尺
小雨
短暂存在
从 15日的 10点(UTC)到 15日的 14点(UTC)
能見度: 3.2公里
多云层高于800英尺
小雨, 轻雾
从 15日的 1400点(UTC)
风速3节,风向多变
能見度: 10公里
散云层高于500英尺
多云层高于1500英尺
短暂存在
从 15日的 14点(UTC)到 15日的 19点(UTC)
能見度: 3.2公里
多云层高于500英尺
小阵雨, 轻雾

TAF: CYZT 150638Z 1507/1519 12012G22KT P6SM -RA SCT020 OVC040 TEMPO 1507/1510 5SM -RA BR SCT010 OVC020 FM151000 12010KT P6SM -RA SCT008 OVC025 TEMPO 1510/1514 2SM -RA BR BKN008 FM151400 VRB03KT P6SM SCT005 BKN015 TEMPO 1514/1519 2SM -SHRA BR BKN005 RMK NXT FCST BY 151300Z

超过4000个机场的气象观测和天气预报(METAR&TAF报告)。

可查询的气象台以黄色和红色小点在地图上表示。

将鼠标移到小点上方,可查看气象台名称。

然后点击查看天气观测和预报。

如需切换地图:点击带黑十字的绿色按钮放大地图;点击带横线的绿色按钮缩小地图;或者点击绿色箭头查看邻近地区的地图。


METAR-TAF: